sensor_id;sensor_type;location;lat;lon;timestamp;pressure;altitude;pressure_sealevel;temperature;humidity
65997;BME280;52765;52.258;21.052;2023-10-08T00:00:52;100233.78;;;10.19;100.00
65997;BME280;52765;52.258;21.052;2023-10-08T00:03:22;100232.41;;;10.15;100.00
65997;BME280;52765;52.258;21.052;2023-10-08T00:05:54;100212.38;;;10.09;100.00
65997;BME280;52765;52.258;21.052;2023-10-08T00:08:19;100218.13;;;10.14;100.00
65997;BME280;52765;52.258;21.052;2023-10-08T00:10:45;100224.56;;;10.22;100.00
65997;BME280;52765;52.258;21.052;2023-10-08T00:13:12;100214.31;;;10.25;100.00
65997;BME280;52765;52.258;21.052;2023-10-08T00:15:41;100211.88;;;10.32;100.00
65997;BME280;52765;52.258;21.052;2023-10-08T00:18:15;100216.63;;;10.38;100.00
65997;BME280;52765;52.258;21.052;2023-10-08T00:20:43;100208.41;;;10.22;100.00
65997;BME280;52765;52.258;21.052;2023-10-08T00:23:21;100214.41;;;10.15;100.00
65997;BME280;52765;52.258;21.052;2023-10-08T00:25:46;100199.44;;;10.13;100.00
65997;BME280;52765;52.258;21.052;2023-10-08T00:28:12;100207.88;;;10.18;100.00
65997;BME280;52765;52.258;21.052;2023-10-08T00:30:41;100207.53;;;10.13;100.00
65997;BME280;52765;52.258;21.052;2023-10-08T00:33:08;100199.00;;;9.99;100.00
65997;BME280;52765;52.258;21.052;2023-10-08T00:35:41;100211.75;;;9.97;100.00
65997;BME280;52765;52.258;21.052;2023-10-08T00:38:10;100219.00;;;9.97;100.00
65997;BME280;52765;52.258;21.052;2023-10-08T00:40:46;100223.38;;;9.98;100.00
65997;BME280;52765;52.258;21.052;2023-10-08T00:43:34;100226.06;;;9.98;100.00
65997;BME280;52765;52.258;21.052;2023-10-08T00:46:03;100219.44;;;9.92;100.00
65997;BME280;52765;52.258;21.052;2023-10-08T00:48:42;100209.56;;;9.93;100.00
65997;BME280;52765;52.258;21.052;2023-10-08T00:51:09;100187.00;;;9.94;100.00
65997;BME280;52765;52.258;21.052;2023-10-08T00:54:03;100201.22;;;10.04;100.00
65997;BME280;52765;52.258;21.052;2023-10-08T00:56:34;100191.78;;;10.00;100.00
65997;BME280;52765;52.258;21.052;2023-10-08T00:59:31;100195.38;;;9.91;100.00
65997;BME280;52765;52.258;21.052;2023-10-08T01:01:59;100200.56;;;9.84;100.00
65997;BME280;52765;52.258;21.052;2023-10-08T01:04:30;100203.44;;;9.82;100.00
65997;BME280;52765;52.258;21.052;2023-10-08T01:06:59;100218.94;;;9.89;100.00
65997;BME280;52765;52.258;21.052;2023-10-08T01:09:27;100198.31;;;9.97;100.00
65997;BME280;52765;52.258;21.052;2023-10-08T01:12:15;100203.69;;;9.97;100.00
65997;BME280;52765;52.258;21.052;2023-10-08T01:14:43;100213.09;;;9.93;100.00
65997;BME280;52765;52.258;21.052;2023-10-08T01:17:09;100218.25;;;9.87;100.00
65997;BME280;52765;52.258;21.052;2023-10-08T01:19:39;100205.78;;;9.86;100.00
65997;BME280;52765;52.258;21.052;2023-10-08T01:22:07;100183.94;;;9.89;100.00
65997;BME280;52765;52.258;21.052;2023-10-08T01:24:33;100196.09;;;9.93;100.00
65997;BME280;52765;52.258;21.052;2023-10-08T01:27:01;100198.25;;;9.89;100.00
65997;BME280;52765;52.258;21.052;2023-10-08T01:29:30;100193.19;;;9.86;100.00
65997;BME280;52765;52.258;21.052;2023-10-08T01:31:57;100193.19;;;9.86;100.00
65997;BME280;52765;52.258;21.052;2023-10-08T01:34:22;100194.72;;;9.89;100.00
65997;BME280;52765;52.258;21.052;2023-10-08T01:36:55;100183.94;;;9.89;100.00
65997;BME280;52765;52.258;21.052;2023-10-08T01:39:21;100195.88;;;9.86;100.00
65997;BME280;52765;52.258;21.052;2023-10-08T01:41:46;100200.03;;;9.80;100.00
65997;BME280;52765;52.258;21.052;2023-10-08T01:44:12;100190.81;;;9.83;100.00
65997;BME280;52765;52.258;21.052;2023-10-08T01:46:38;100201.47;;;9.93;100.00
65997;BME280;52765;52.258;21.052;2023-10-08T01:49:06;100219.31;;;9.94;100.00
65997;BME280;52765;52.258;21.052;2023-10-08T01:51:39;100221.84;;;9.95;100.00
65997;BME280;52765;52.258;21.052;2023-10-08T01:54:11;100230.94;;;9.94;100.00
65997;BME280;52765;52.258;21.052;2023-10-08T01:56:38;100241.13;;;9.91;100.00
65997;BME280;52765;52.258;21.052;2023-10-08T01:59:07;100234.00;;;9.81;100.00
65997;BME280;52765;52.258;21.052;2023-10-08T02:01:34;100235.72;;;9.82;100.00
65997;BME280;52765;52.258;21.052;2023-10-08T02:04:00;100236.53;;;9.83;100.00
65997;BME280;52765;52.258;21.052;2023-10-08T02:06:25;100248.44;;;9.80;100.00
65997;BME280;52765;52.258;21.052;2023-10-08T02:08:51;100222.19;;;9.74;100.00
65997;BME280;52765;52.258;21.052;2023-10-08T02:11:16;100227.41;;;9.76;100.00
65997;BME280;52765;52.258;21.052;2023-10-08T02:13:42;100238.19;;;9.76;100.00
65997;BME280;52765;52.258;21.052;2023-10-08T02:16:07;100216.81;;;9.74;100.00
65997;BME280;52765;52.258;21.052;2023-10-08T02:18:33;100234.16;;;9.80;100.00
65997;BME280;52765;52.258;21.052;2023-10-08T02:20:58;100228.41;;;9.75;100.00
65997;BME280;52765;52.258;21.052;2023-10-08T02:23:24;100229.25;;;9.75;100.00
65997;BME280;52765;52.258;21.052;2023-10-08T02:25:49;100230.25;;;9.74;100.00
65997;BME280;52765;52.258;21.052;2023-10-08T02:28:15;100242.22;;;9.80;100.00
65997;BME280;52765;52.258;21.052;2023-10-08T02:30:41;100234.16;;;9.80;100.00
65997;BME280;52765;52.258;21.052;2023-10-08T02:33:08;100251.13;;;9.80;100.00
65997;BME280;52765;52.258;21.052;2023-10-08T02:35:44;100266.44;;;9.80;100.00
65997;BME280;52765;52.258;21.052;2023-10-08T02:38:12;100270.50;;;9.84;100.00
65997;BME280;52765;52.258;21.052;2023-10-08T02:40:42;100266.97;;;9.84;100.00
65997;BME280;52765;52.258;21.052;2023-10-08T02:43:14;100280.28;;;9.85;100.00
65997;BME280;52765;52.258;21.052;2023-10-08T02:45:41;100281.25;;;9.84;100.00
65997;BME280;52765;52.258;21.052;2023-10-08T02:48:10;100291.03;;;9.85;100.00
65997;BME280;52765;52.258;21.052;2023-10-08T02:50:40;100281.13;;;9.86;100.00
65997;BME280;52765;52.258;21.052;2023-10-08T02:53:06;100282.34;;;9.91;100.00
65997;BME280;52765;52.258;21.052;2023-10-08T02:55:40;100293.28;;;9.90;100.00
65997;BME280;52765;52.258;21.052;2023-10-08T02:58:12;100298.44;;;9.83;100.00
65997;BME280;52765;52.258;21.052;2023-10-08T03:00:43;100290.19;;;9.85;100.00
65997;BME280;52765;52.258;21.052;2023-10-08T03:03:15;100289.34;;;9.84;100.00
65997;BME280;52765;52.258;21.052;2023-10-08T03:05:52;100292.75;;;9.86;100.00
65997;BME280;52765;52.258;21.052;2023-10-08T03:08:18;100290.34;;;9.83;100.00
65997;BME280;52765;52.258;21.052;2023-10-08T03:10:47;100274.06;;;9.85;100.00
65997;BME280;52765;52.258;21.052;2023-10-08T03:13:44;100283.13;;;9.84;100.00
65997;BME280;52765;52.258;21.052;2023-10-08T03:16:13;100305.09;;;9.79;100.00
65997;BME280;52765;52.258;21.052;2023-10-08T03:18:39;100306.13;;;9.78;100.00
65997;BME280;52765;52.258;21.052;2023-10-08T03:21:10;100290.97;;;9.77;100.00
65997;BME280;52765;52.258;21.052;2023-10-08T03:24:02;100306.13;;;9.78;100.00
65997;BME280;52765;52.258;21.052;2023-10-08T03:26:37;100294.91;;;9.82;100.00
65997;BME280;52765;52.258;21.052;2023-10-08T03:29:04;100307.19;;;9.85;100.00
65997;BME280;52765;52.258;21.052;2023-10-08T03:31:34;100312.88;;;9.82;100.00
65997;BME280;52765;52.258;21.052;2023-10-08T03:34:29;100308.41;;;9.73;100.00
65997;BME280;52765;52.258;21.052;2023-10-08T03:40:21;100329.69;;;9.66;98.91
65997;BME280;52765;52.258;21.052;2023-10-08T03:43:07;100328.28;;;9.62;95.61
65997;BME280;52765;52.258;21.052;2023-10-08T03:45:45;100328.44;;;9.60;94.32
65997;BME280;52765;52.258;21.052;2023-10-08T03:48:22;100345.44;;;9.61;93.83
65997;BME280;52765;52.258;21.052;2023-10-08T03:50:48;100338.50;;;9.58;93.30
65997;BME280;52765;52.258;21.052;2023-10-08T03:53:22;100348.44;;;9.58;91.36
65997;BME280;52765;52.258;21.052;2023-10-08T03:55:48;100348.81;;;9.63;91.40
65997;BME280;52765;52.258;21.052;2023-10-08T03:58:17;100355.34;;;9.60;90.34
65997;BME280;52765;52.258;21.052;2023-10-08T04:00:55;100364.41;;;9.59;90.35
65997;BME280;52765;52.258;21.052;2023-10-08T04:03:37;100376.84;;;9.60;90.20
65997;BME280;52765;52.258;21.052;2023-10-08T04:06:20;100375.31;;;9.58;89.36
65997;BME280;52765;52.258;21.052;2023-10-08T04:08:54;100377.63;;;9.53;87.11
65997;BME280;52765;52.258;21.052;2023-10-08T04:11:38;100378.59;;;9.52;86.71
65997;BME280;52765;52.258;21.052;2023-10-08T04:14:16;100383.97;;;9.52;86.07
65997;BME280;52765;52.258;21.052;2023-10-08T04:16:42;100386.56;;;9.43;85.24
65997;BME280;52765;52.258;21.052;2023-10-08T04:19:09;100394.09;;;9.40;85.55
65997;BME280;52765;52.258;21.052;2023-10-08T04:21:35;100393.25;;;9.39;85.24
65997;BME280;52765;52.258;21.052;2023-10-08T04:24:00;100421.13;;;9.38;86.05
65997;BME280;52765;52.258;21.052;2023-10-08T04:26:30;100425.66;;;9.38;85.05
65997;BME280;52765;52.258;21.052;2023-10-08T04:28:57;100427.47;;;9.37;84.67
65997;BME280;52765;52.258;21.052;2023-10-08T04:31:27;100422.56;;;9.33;84.22
65997;BME280;52765;52.258;21.052;2023-10-08T04:34:06;100430.38;;;9.26;84.16
65997;BME280;52765;52.258;21.052;2023-10-08T04:36:48;100423.88;;;9.19;84.34
65997;BME280;52765;52.258;21.052;2023-10-08T04:39:21;100437.91;;;9.13;84.88
65997;BME280;52765;52.258;21.052;2023-10-08T04:42:00;100427.03;;;9.04;84.21
65997;BME280;52765;52.258;21.052;2023-10-08T04:44:49;100444.13;;;9.03;84.67
65997;BME280;52765;52.258;21.052;2023-10-08T04:47:14;100440.34;;;8.96;83.42
65997;BME280;52765;52.258;21.052;2023-10-08T04:49:57;100454.75;;;8.95;83.81
65997;BME280;52765;52.258;21.052;2023-10-08T04:52:22;100444.28;;;8.92;84.12
65997;BME280;52765;52.258;21.052;2023-10-08T04:54:50;100460.81;;;8.97;83.86
65997;BME280;52765;52.258;21.052;2023-10-08T04:57:20;100470.59;;;8.88;83.82
65997;BME280;52765;52.258;21.052;2023-10-08T04:59:51;100461.56;;;8.80;83.74
65997;BME280;52765;52.258;21.052;2023-10-08T05:02:17;100469.78;;;8.78;84.69
65997;BME280;52765;52.258;21.052;2023-10-08T05:04:59;100471.63;;;8.78;84.35
65997;BME280;52765;52.258;21.052;2023-10-08T05:07:57;100470.31;;;8.72;83.97
65997;BME280;52765;52.258;21.052;2023-10-08T05:10:26;100467.22;;;8.67;84.73
65997;BME280;52765;52.258;21.052;2023-10-08T05:12:55;100472.59;;;8.67;84.71
65997;BME280;52765;52.258;21.052;2023-10-08T05:15:41;100485.19;;;8.66;84.12
65997;BME280;52765;52.258;21.052;2023-10-08T05:18:27;100492.81;;;8.61;84.40
65997;BME280;52765;52.258;21.052;2023-10-08T05:21:12;100485.19;;;8.57;84.18
65997;BME280;52765;52.258;21.052;2023-10-08T05:23:51;100496.47;;;8.60;83.72
65997;BME280;52765;52.258;21.052;2023-10-08T05:26:35;100491.94;;;8.61;83.96
65997;BME280;52765;52.258;21.052;2023-10-08T05:29:08;100506.53;;;8.58;83.96
65997;BME280;52765;52.258;21.052;2023-10-08T05:32:11;100509.47;;;8.55;83.70
65997;BME280;52765;52.258;21.052;2023-10-08T05:35:06;100507.78;;;8.54;84.28
65997;BME280;52765;52.258;21.052;2023-10-08T05:37:50;100512.31;;;8.54;83.58
65997;BME280;52765;52.258;21.052;2023-10-08T05:40:27;100521.03;;;8.46;83.98
65997;BME280;52765;52.258;21.052;2023-10-08T05:43:11;100527.16;;;8.58;83.48
65997;BME280;52765;52.258;21.052;2023-10-08T05:45:56;100537.03;;;8.57;84.05
65997;BME280;52765;52.258;21.052;2023-10-08T05:48:42;100546.94;;;8.66;83.47
65997;BME280;52765;52.258;21.052;2023-10-08T05:51:12;100556.53;;;8.59;82.59
65997;BME280;52765;52.258;21.052;2023-10-08T05:53:59;100566.16;;;8.62;81.77
65997;BME280;52765;52.258;21.052;2023-10-08T05:56:24;100553.41;;;8.54;81.85
65997;BME280;52765;52.258;21.052;2023-10-08T05:59:07;100557.00;;;8.64;81.77
65997;BME280;52765;52.258;21.052;2023-10-08T06:01:43;100573.81;;;8.66;82.09
65997;BME280;52765;52.258;21.052;2023-10-08T06:04:11;100578.75;;;8.61;81.84
65997;BME280;52765;52.258;21.052;2023-10-08T06:06:56;100600.06;;;8.53;82.04
65997;BME280;52765;52.258;21.052;2023-10-08T06:09:38;100603.28;;;8.47;82.78
65997;BME280;52765;52.258;21.052;2023-10-08T06:12:05;100608.66;;;8.47;82.32
65997;BME280;52765;52.258;21.052;2023-10-08T06:17:58;100622.34;;;8.44;81.44
65997;BME280;52765;52.258;21.052;2023-10-08T06:20:29;100624.19;;;8.43;78.97
65997;BME280;52765;52.258;21.052;2023-10-08T06:22:55;100633.16;;;8.32;78.48
65997;BME280;52765;52.258;21.052;2023-10-08T06:25:27;100638.09;;;8.27;78.48
65997;BME280;52765;52.258;21.052;2023-10-08T06:27:53;100637.25;;;8.27;77.43
65997;BME280;52765;52.258;21.052;2023-10-08T06:30:23;100655.91;;;8.28;77.68
65997;BME280;52765;52.258;21.052;2023-10-08T06:32:59;100660.13;;;8.21;76.97
65997;BME280;52765;52.258;21.052;2023-10-08T06:35:26;100653.88;;;8.21;75.51
65997;BME280;52765;52.258;21.052;2023-10-08T06:37:53;100653.88;;;8.21;75.37
65997;BME280;52765;52.258;21.052;2023-10-08T06:40:26;100653.34;;;8.27;74.89
65997;BME280;52765;52.258;21.052;2023-10-08T06:43:04;100672.28;;;8.25;73.44
65997;BME280;52765;52.258;21.052;2023-10-08T06:45:46;100656.88;;;8.27;73.82
65997;BME280;52765;52.258;21.052;2023-10-08T06:48:12;100671.47;;;8.34;73.72
65997;BME280;52765;52.258;21.052;2023-10-08T06:50:46;100672.06;;;8.38;70.96
65997;BME280;52765;52.258;21.052;2023-10-08T06:53:13;100678.47;;;8.47;70.78
65997;BME280;52765;52.258;21.052;2023-10-08T06:55:46;100689.44;;;8.65;69.76
65997;BME280;52765;52.258;21.052;2023-10-08T06:58:13;100680.53;;;8.74;68.24
65997;BME280;52765;52.258;21.052;2023-10-08T07:00:40;100681.19;;;8.57;66.69
65997;BME280;52765;52.258;21.052;2023-10-08T07:03:12;100688.28;;;8.58;67.32
65997;BME280;52765;52.258;21.052;2023-10-08T07:05:46;100696.91;;;8.61;66.33
65997;BME280;52765;52.258;21.052;2023-10-08T07:08:29;100717.03;;;8.46;65.00
65997;BME280;52765;52.258;21.052;2023-10-08T07:11:02;100720.13;;;8.41;64.91
65997;BME280;52765;52.258;21.052;2023-10-08T07:13:34;100721.09;;;8.40;64.87
65997;BME280;52765;52.258;21.052;2023-10-08T07:16:02;100737.66;;;8.45;63.83
65997;BME280;52765;52.258;21.052;2023-10-08T07:18:30;100725.25;;;8.44;64.29
65997;BME280;52765;52.258;21.052;2023-10-08T07:20:59;100720.47;;;8.48;63.32
65997;BME280;52765;52.258;21.052;2023-10-08T07:23:37;100737.16;;;8.51;63.45
65997;BME280;52765;52.258;21.052;2023-10-08T07:26:14;100729.56;;;8.66;62.47
65997;BME280;52765;52.258;21.052;2023-10-08T07:28:43;100720.38;;;8.69;61.86
65997;BME280;52765;52.258;21.052;2023-10-08T07:31:19;100728.88;;;8.74;61.40
65997;BME280;52765;52.258;21.052;2023-10-08T07:33:50;100739.53;;;8.85;60.25
65997;BME280;52765;52.258;21.052;2023-10-08T07:36:25;100756.94;;;8.81;59.64
65997;BME280;52765;52.258;21.052;2023-10-08T07:38:52;100771.84;;;8.64;58.97
65997;BME280;52765;52.258;21.052;2023-10-08T07:41:19;100746.94;;;8.62;59.04
65997;BME280;52765;52.258;21.052;2023-10-08T07:43:46;100756.75;;;8.73;59.06
65997;BME280;52765;52.258;21.052;2023-10-08T07:46:27;100767.09;;;8.87;58.49
65997;BME280;52765;52.258;21.052;2023-10-08T07:48:53;100754.69;;;8.86;58.41
65997;BME280;52765;52.258;21.052;2023-10-08T07:51:19;100766.56;;;8.94;57.86
65997;BME280;52765;52.258;21.052;2023-10-08T07:53:50;100779.44;;;8.90;57.80
65997;BME280;52765;52.258;21.052;2023-10-08T07:56:25;100767.28;;;8.96;58.31
65997;BME280;52765;52.258;21.052;2023-10-08T07:58:52;100771.41;;;9.00;56.71
65997;BME280;52765;52.258;21.052;2023-10-08T08:01:21;100787.22;;;8.93;56.79
65997;BME280;52765;52.258;21.052;2023-10-08T08:03:46;100769.97;;;8.86;56.71
65997;BME280;52765;52.258;21.052;2023-10-08T08:06:14;100785.91;;;8.87;57.15
65997;BME280;52765;52.258;21.052;2023-10-08T08:08:40;100781.41;;;8.88;56.47
65997;BME280;52765;52.258;21.052;2023-10-08T08:11:07;100788.63;;;8.97;56.55
65997;BME280;52765;52.258;21.052;2023-10-08T08:13:43;100779.06;;;9.04;56.81
65997;BME280;52765;52.258;21.052;2023-10-08T08:16:13;100805.66;;;9.07;56.00
65997;BME280;52765;52.258;21.052;2023-10-08T08:18:45;100791.81;;;9.12;56.62
65997;BME280;52765;52.258;21.052;2023-10-08T08:21:12;100804.00;;;9.16;55.54
65997;BME280;52765;52.258;21.052;2023-10-08T08:23:45;100810.50;;;9.14;55.68
65997;BME280;52765;52.258;21.052;2023-10-08T08:26:18;100804.94;;;9.05;55.62
65997;BME280;52765;52.258;21.052;2023-10-08T08:28:58;100795.19;;;9.14;55.97
65997;BME280;52765;52.258;21.052;2023-10-08T08:31:26;100818.41;;;9.15;55.46
65997;BME280;52765;52.258;21.052;2023-10-08T08:33:52;100816.69;;;9.14;54.83
65997;BME280;52765;52.258;21.052;2023-10-08T08:36:22;100807.97;;;9.22;54.30
65997;BME280;52765;52.258;21.052;2023-10-08T08:38:49;100815.72;;;9.15;53.38
65997;BME280;52765;52.258;21.052;2023-10-08T08:41:15;100805.38;;;9.11;53.39
65997;BME280;52765;52.258;21.052;2023-10-08T08:43:49;100817.03;;;9.21;54.13
65997;BME280;52765;52.258;21.052;2023-10-08T08:46:15;100815.06;;;9.23;53.29
65997;BME280;52765;52.258;21.052;2023-10-08T08:48:46;100814.38;;;9.40;53.21
65997;BME280;52765;52.258;21.052;2023-10-08T08:51:13;100806.63;;;9.47;52.16
65997;BME280;52765;52.258;21.052;2023-10-08T08:53:39;100822.59;;;9.49;51.64
65997;BME280;52765;52.258;21.052;2023-10-08T08:56:07;100820.09;;;9.57;50.90
65997;BME280;52765;52.258;21.052;2023-10-08T08:58:34;100832.25;;;9.51;50.89
65997;BME280;52765;52.258;21.052;2023-10-08T09:01:01;100829.09;;;9.36;51.00
65997;BME280;52765;52.258;21.052;2023-10-08T09:03:29;100845.09;;;9.38;51.02
65997;BME280;52765;52.258;21.052;2023-10-08T09:05:58;100832.66;;;9.47;50.68
65997;BME280;52765;52.258;21.052;2023-10-08T09:08:36;100831.69;;;9.48;50.73
65997;BME280;52765;52.258;21.052;2023-10-08T09:11:02;100843.00;;;9.51;50.35
65997;BME280;52765;52.258;21.052;2023-10-08T09:13:34;100843.75;;;9.63;49.56
65997;BME280;52765;52.258;21.052;2023-10-08T09:16:13;100863.41;;;9.63;49.75
65997;BME280;52765;52.258;21.052;2023-10-08T09:18:44;100838.19;;;9.55;49.75
65997;BME280;52765;52.258;21.052;2023-10-08T09:21:18;100839.91;;;9.66;50.53
65997;BME280;52765;52.258;21.052;2023-10-08T09:23:51;100846.47;;;9.92;50.38
65997;BME280;52765;52.258;21.052;2023-10-08T09:26:17;100854.97;;;9.88;49.25
65997;BME280;52765;52.258;21.052;2023-10-08T09:28:47;100849.59;;;9.88;48.35
65997;BME280;52765;52.258;21.052;2023-10-08T09:31:14;100866.19;;;10.03;48.31
65997;BME280;52765;52.258;21.052;2023-10-08T09:33:40;100857.97;;;9.94;47.21
65997;BME280;52765;52.258;21.052;2023-10-08T09:36:07;100842.66;;;9.95;48.38
65997;BME280;52765;52.258;21.052;2023-10-08T09:38:36;100875.38;;;10.00;47.98
65997;BME280;52765;52.258;21.052;2023-10-08T09:41:02;100874.38;;;9.91;48.37
65997;BME280;52765;52.258;21.052;2023-10-08T09:43:33;100878.63;;;9.94;48.59
65997;BME280;52765;52.258;21.052;2023-10-08T09:46:09;100863.63;;;9.91;48.21
65997;BME280;52765;52.258;21.052;2023-10-08T09:48:38;100878.34;;;10.07;48.30
65997;BME280;52765;52.258;21.052;2023-10-08T09:51:09;100883.88;;;10.05;47.47
65997;BME280;52765;52.258;21.052;2023-10-08T09:53:57;100888.69;;;9.92;47.79
65997;BME280;52765;52.258;21.052;2023-10-08T09:56:24;100871.81;;;9.90;48.43
65997;BME280;52765;52.258;21.052;2023-10-08T09:58:50;100868.88;;;10.03;47.58
65997;BME280;52765;52.258;21.052;2023-10-08T10:01:18;100877.06;;;10.21;48.04
65997;BME280;52765;52.258;21.052;2023-10-08T10:03:45;100899.03;;;10.26;46.58
65997;BME280;52765;52.258;21.052;2023-10-08T10:06:15;100895.22;;;10.28;46.65
65997;BME280;52765;52.258;21.052;2023-10-08T10:11:54;100883.03;;;10.05;46.14
65997;BME280;52765;52.258;21.052;2023-10-08T10:14:23;100884.44;;;10.18;46.73
65997;BME280;52765;52.258;21.052;2023-10-08T10:17:28;100886.28;;;10.57;46.58
65997;BME280;52765;52.258;21.052;2023-10-08T10:19:59;100894.34;;;10.77;47.06
65997;BME280;52765;52.258;21.052;2023-10-08T10:22:30;100886.28;;;10.77;46.40
65997;BME280;52765;52.258;21.052;2023-10-08T10:24:57;100887.13;;;10.77;45.07
65997;BME280;52765;52.258;21.052;2023-10-08T10:27:25;100887.56;;;10.72;44.28
65997;BME280;52765;52.258;21.052;2023-10-08T10:30:01;100897.47;;;10.72;43.95
65997;BME280;52765;52.258;21.052;2023-10-08T10:32:29;100889.81;;;10.77;44.48
65997;BME280;52765;52.258;21.052;2023-10-08T10:34:55;100894.06;;;10.89;44.37
65997;BME280;52765;52.258;21.052;2023-10-08T10:37:20;100894.63;;;10.83;43.59
65997;BME280;52765;52.258;21.052;2023-10-08T10:39:57;100891.91;;;10.93;43.10
65997;BME280;52765;52.258;21.052;2023-10-08T10:42:26;100894.47;;;10.95;42.63
65997;BME280;52765;52.258;21.052;2023-10-08T10:44:54;100900.00;;;10.93;42.66
65997;BME280;52765;52.258;21.052;2023-10-08T10:47:21;100899.72;;;10.96;42.88
65997;BME280;52765;52.258;21.052;2023-10-08T10:49:51;100898.31;;;10.82;42.43
65997;BME280;52765;52.258;21.052;2023-10-08T10:52:23;100890.69;;;10.78;43.25
65997;BME280;52765;52.258;21.052;2023-10-08T10:55:04;100882.44;;;10.79;43.60
65997;BME280;52765;52.258;21.052;2023-10-08T10:57:43;100889.53;;;10.80;43.64
65997;BME280;52765;52.258;21.052;2023-10-08T11:00:09;100883.56;;;10.86;43.57
65997;BME280;52765;52.258;21.052;2023-10-08T11:03:04;100897.53;;;11.09;42.86
65997;BME280;52765;52.258;21.052;2023-10-08T11:05:37;100884.06;;;11.09;43.40
65997;BME280;52765;52.258;21.052;2023-10-08T11:08:06;100894.50;;;11.22;42.88
65997;BME280;52765;52.258;21.052;2023-10-08T11:10:42;100889.31;;;11.39;42.61
65997;BME280;52765;52.258;21.052;2023-10-08T11:13:18;100890.75;;;11.43;42.02
65997;BME280;52765;52.258;21.052;2023-10-08T11:15:46;100888.66;;;11.27;42.92
65997;BME280;52765;52.258;21.052;2023-10-08T11:18:20;100902.50;;;11.42;42.39
65997;BME280;52765;52.258;21.052;2023-10-08T11:20:47;100900.97;;;11.39;41.93
65997;BME280;52765;52.258;21.052;2023-10-08T11:23:41;100905.28;;;11.60;40.88
65997;BME280;52765;52.258;21.052;2023-10-08T11:26:08;100892.28;;;11.73;40.83
65997;BME280;52765;52.258;21.052;2023-10-08T11:28:38;100908.03;;;11.78;40.38
65997;BME280;52765;52.258;21.052;2023-10-08T11:31:09;100933.41;;;11.57;39.74
65997;BME280;52765;52.258;21.052;2023-10-08T11:33:40;100906.56;;;11.28;40.55
65997;BME280;52765;52.258;21.052;2023-10-08T11:36:07;100901.41;;;11.35;39.50
65997;BME280;52765;52.258;21.052;2023-10-08T11:38:44;100905.88;;;11.26;38.83
65997;BME280;52765;52.258;21.052;2023-10-08T11:41:14;100906.41;;;11.29;38.19
65997;BME280;52765;52.258;21.052;2023-10-08T11:43:56;100909.94;;;11.30;38.47
65997;BME280;52765;52.258;21.052;2023-10-08T11:46:28;100897.91;;;11.52;39.03
65997;BME280;52765;52.258;21.052;2023-10-08T11:49:04;100913.72;;;11.75;38.71
65997;BME280;52765;52.258;21.052;2023-10-08T11:51:36;100893.03;;;11.65;38.45
65997;BME280;52765;52.258;21.052;2023-10-08T11:54:02;100893.50;;;11.61;38.47
65997;BME280;52765;52.258;21.052;2023-10-08T11:56:31;100924.38;;;11.76;37.78
65997;BME280;52765;52.258;21.052;2023-10-08T11:58:59;100914.59;;;11.65;37.11
65997;BME280;52765;52.258;21.052;2023-10-08T12:01:27;100928.47;;;11.53;37.62
65997;BME280;52765;52.258;21.052;2023-10-08T12:03:53;100907.69;;;11.63;36.92
65997;BME280;52765;52.258;21.052;2023-10-08T12:06:24;100929.22;;;11.73;36.88
65997;BME280;52765;52.258;21.052;2023-10-08T12:08:50;100918.31;;;11.92;37.06
65997;BME280;52765;52.258;21.052;2023-10-08T12:11:19;100922.31;;;11.88;37.19
65997;BME280;52765;52.258;21.052;2023-10-08T12:13:48;100918.16;;;11.94;37.18
65997;BME280;52765;52.258;21.052;2023-10-08T12:16:15;100915.66;;;12.10;37.10
65997;BME280;52765;52.258;21.052;2023-10-08T12:18:46;100913.25;;;12.61;36.52
65997;BME280;52765;52.258;21.052;2023-10-08T12:21:14;100906.91;;;12.70;35.64
65997;BME280;52765;52.258;21.052;2023-10-08T12:23:41;100915.28;;;12.59;35.53
65997;BME280;52765;52.258;21.052;2023-10-08T12:26:09;100928.06;;;12.57;34.73
65997;BME280;52765;52.258;21.052;2023-10-08T12:28:35;100923.00;;;12.36;35.32
65997;BME280;52765;52.258;21.052;2023-10-08T12:31:02;100918.75;;;12.51;34.94
65997;BME280;52765;52.258;21.052;2023-10-08T12:33:29;100942.00;;;12.26;35.19
65997;BME280;52765;52.258;21.052;2023-10-08T12:35:55;100929.09;;;12.20;34.83
65997;BME280;52765;52.258;21.052;2023-10-08T12:38:22;100939.41;;;12.07;34.48
65997;BME280;52765;52.258;21.052;2023-10-08T12:40:51;100938.78;;;11.95;34.92
65997;BME280;52765;52.258;21.052;2023-10-08T12:45:49;100936.13;;;12.13;34.44
65997;BME280;52765;52.258;21.052;2023-10-08T12:48:21;100943.75;;;12.17;34.47
65997;BME280;52765;52.258;21.052;2023-10-08T12:50:47;100942.19;;;11.87;34.58
65997;BME280;52765;52.258;21.052;2023-10-08T12:53:21;100944.53;;;11.72;35.07
65997;BME280;52765;52.258;21.052;2023-10-08T12:55:53;100964.00;;;11.76;35.14
65997;BME280;52765;52.258;21.052;2023-10-08T12:58:23;100937.72;;;11.78;35.93
65997;BME280;52765;52.258;21.052;2023-10-08T13:00:55;100928.66;;;11.97;35.74
65997;BME280;52765;52.258;21.052;2023-10-08T13:03:28;100938.19;;;12.01;35.92
65997;BME280;52765;52.258;21.052;2023-10-08T13:05:57;100978.97;;;11.98;36.01
65997;BME280;52765;52.258;21.052;2023-10-08T13:08:32;100947.75;;;11.85;36.26
65997;BME280;52765;52.258;21.052;2023-10-08T13:10:59;100935.34;;;12.02;35.71
65997;BME280;52765;52.258;21.052;2023-10-08T13:13:29;100956.56;;;12.33;36.01
65997;BME280;52765;52.258;21.052;2023-10-08T13:15:55;100955.50;;;12.26;36.05
65997;BME280;52765;52.258;21.052;2023-10-08T13:18:22;100936.19;;;12.21;36.01